createdAt,value
2018-07-23T00:00:32.143Z,67.96
2018-07-23T00:03:04.103Z,67.89
2018-07-23T00:05:38.734Z,68.18
2018-07-23T00:08:08.927Z,68.53
2018-07-23T00:10:41.434Z,69.27
2018-07-23T00:13:14.145Z,70.81
2018-07-23T00:15:45.577Z,70.73
2018-07-23T00:18:15.608Z,70.86
2018-07-23T00:20:50.396Z,70.40
2018-07-23T00:23:23.463Z,69.75
2018-07-23T00:25:58.327Z,69.59
2018-07-23T00:28:29.999Z,70.52
2018-07-23T00:31:02.927Z,72.26
2018-07-23T00:33:34.739Z,73.30
2018-07-23T00:36:07.875Z,73.72
2018-07-23T00:38:39.394Z,73.67
2018-07-23T00:41:12.779Z,73.72
2018-07-23T00:43:47.557Z,74.10
2018-07-23T00:46:17.762Z,74.47
2018-07-23T00:48:49.325Z,74.74
2018-07-23T00:51:22.595Z,74.15
2018-07-23T00:53:57.343Z,73.22
2018-07-23T00:56:31.993Z,72.72
2018-07-23T00:59:04.993Z,73.12
2018-07-23T01:01:38.913Z,73.18
2018-07-23T01:04:10.664Z,73.42
2018-07-23T01:06:45.519Z,73.71
2018-07-23T01:09:17.022Z,73.47
2018-07-23T01:11:51.163Z,73.81
2018-07-23T01:14:22.759Z,74.16
2018-07-23T01:16:56.028Z,74.55
2018-07-23T01:19:27.647Z,74.82
2018-07-23T01:21:57.603Z,74.75
2018-07-23T01:24:27.233Z,74.44
2018-07-23T01:27:01.007Z,74.32
2018-07-23T01:29:34.059Z,74.64
2018-07-23T01:32:07.095Z,74.57
2018-07-23T01:34:39.479Z,74.48
2018-07-23T01:37:09.534Z,74.61
2018-07-23T01:39:41.333Z,74.38
2018-07-23T01:42:12.915Z,74.33
2018-07-23T01:44:43.462Z,74.38
2018-07-23T01:47:16.508Z,74.44
2018-07-23T01:49:51.167Z,74.58
2018-07-23T01:52:25.750Z,74.23
2018-07-23T01:54:58.879Z,74.70
2018-07-23T01:57:30.539Z,75.13
2018-07-23T02:00:02.476Z,75.20
2018-07-23T02:02:35.049Z,75.24
2018-07-23T02:05:08.314Z,75.56
2018-07-23T02:07:41.367Z,76.35
2018-07-23T02:10:12.895Z,76.71
2018-07-23T02:12:45.002Z,77.38
2018-07-23T02:15:16.741Z,76.65
2018-07-23T02:17:50.220Z,76.42
2018-07-23T02:20:21.765Z,76.45
2018-07-23T02:22:54.773Z,76.29
2018-07-23T02:25:29.329Z,75.56
2018-07-23T02:28:00.897Z,75.83
2018-07-23T02:30:33.990Z,75.61
2018-07-23T02:33:03.949Z,76.30
2018-07-23T02:35:39.067Z,76.21
2018-07-23T02:38:10.741Z,76.09
2018-07-23T02:40:42.947Z,76.04
2018-07-23T02:43:14.418Z,75.77
2018-07-23T02:45:46.290Z,76.24
2018-07-23T02:48:17.807Z,76.96
2018-07-23T02:50:51.076Z,77.10
2018-07-23T02:53:25.839Z,77.10
2018-07-23T02:55:58.992Z,76.93
2018-07-23T02:58:33.107Z,77.01
2018-07-23T03:01:04.324Z,76.99
2018-07-23T03:03:34.228Z,77.11
2018-07-23T03:06:08.983Z,77.70
2018-07-23T03:08:43.802Z,77.77
2018-07-23T03:11:16.836Z,76.65
2018-07-23T03:13:49.855Z,75.62
2018-07-23T03:16:21.937Z,75.49
2018-07-23T03:18:53.532Z,76.21
2018-07-23T03:21:25.282Z,77.08
2018-07-23T03:23:58.515Z,77.08
2018-07-23T03:26:30.077Z,76.30
2018-07-23T03:29:00.175Z,75.39
2018-07-23T03:31:33.287Z,76.83
2018-07-23T03:34:06.327Z,76.11
2018-07-23T03:36:37.804Z,76.10
2018-07-23T03:39:14.361Z,75.88
2018-07-23T03:41:49.041Z,76.13
2018-07-23T03:44:22.960Z,77.08
2018-07-23T03:46:56.531Z,77.12
2018-07-23T03:49:29.687Z,76.03
2018-07-23T03:52:02.139Z,77.07
2018-07-23T03:54:35.251Z,77.07
2018-07-23T03:57:06.833Z,76.96
2018-07-23T03:59:40.207Z,76.90
2018-07-23T04:02:14.371Z,75.94
2018-07-23T04:04:46.807Z,74.09
2018-07-23T04:07:19.052Z,72.68
2018-07-23T04:09:49.144Z,73.40
2018-07-23T04:12:22.368Z,72.41
2018-07-23T04:14:53.828Z,71.85
2018-07-23T04:17:27.249Z,71.77
2018-07-23T04:20:00.326Z,71.13
2018-07-23T04:22:32.029Z,70.92
2018-07-23T04:25:03.217Z,69.76
2018-07-23T04:27:36.287Z,69.52
2018-07-23T04:30:10.887Z,69.22
2018-07-23T04:32:45.375Z,68.44
2018-07-23T04:35:18.420Z,66.98
2018-07-23T04:37:51.391Z,65.67
2018-07-23T04:40:24.746Z,65.06
2018-07-23T04:42:56.310Z,63.48
2018-07-23T04:45:31.201Z,63.11
2018-07-23T04:48:01.723Z,62.18
2018-07-23T04:50:31.747Z,62.13
2018-07-23T04:53:01.748Z,61.56
2018-07-23T04:55:33.253Z,61.32
2018-07-23T04:58:06.289Z,60.13
2018-07-23T05:00:39.216Z,57.16
2018-07-23T05:03:10.779Z,56.75
2018-07-23T05:05:43.941Z,58.15
2018-07-23T05:08:16.978Z,57.84
2018-07-23T05:10:48.554Z,55.73
2018-07-23T05:13:21.049Z,53.35
2018-07-23T05:15:54.087Z,52.81
2018-07-23T05:18:26.964Z,50.75
2018-07-23T05:20:58.444Z,50.93
2018-07-23T05:23:31.411Z,51.31
2018-07-23T05:26:01.408Z,51.42
2018-07-23T05:28:34.320Z,51.33
2018-07-23T05:31:04.436Z,50.02
2018-07-23T05:33:35.915Z,48.99
2018-07-23T05:36:10.478Z,47.74
2018-07-23T05:38:41.320Z,45.94
2018-07-23T05:41:14.146Z,44.18
2018-07-23T05:43:47.098Z,44.13
2018-07-23T05:46:20.171Z,42.88
2018-07-23T05:48:52.410Z,42.72
2018-07-23T05:51:24.063Z,42.07
2018-07-23T05:53:55.629Z,40.55
2018-07-23T05:56:27.237Z,40.62
2018-07-23T05:58:58.872Z,43.26
2018-07-23T06:01:31.811Z,41.35
2018-07-23T06:04:05.552Z,40.18
2018-07-23T06:06:37.322Z,43.04
2018-07-23T06:09:12.764Z,39.56
2018-07-23T06:11:44.434Z,38.17
2018-07-23T06:14:17.350Z,40.01
2018-07-23T06:16:48.868Z,39.70
2018-07-23T06:19:19.697Z,38.60
2018-07-23T06:21:54.401Z,40.61
2018-07-23T06:24:26.023Z,38.60
2018-07-23T06:26:58.948Z,37.47
2018-07-23T06:29:31.988Z,37.65
2018-07-23T06:32:04.844Z,38.10
2018-07-23T06:34:37.930Z,38.65
2018-07-23T06:37:11.052Z,36.77
2018-07-23T06:39:44.090Z,36.94
2018-07-23T06:42:18.399Z,36.23
2018-07-23T06:44:51.400Z,36.98
2018-07-23T06:47:23.125Z,37.43
2018-07-23T06:49:54.724Z,36.72
2018-07-23T06:52:24.699Z,37.29
2018-07-23T06:54:59.153Z,37.56
2018-07-23T06:57:30.835Z,36.83
2018-07-23T07:00:03.721Z,35.11
2018-07-23T07:02:38.244Z,36.36
2018-07-23T07:05:09.610Z,34.17
2018-07-23T07:07:42.632Z,32.43
2018-07-23T07:10:15.676Z,32.35
2018-07-23T07:12:45.537Z,35.56
2018-07-23T07:15:18.631Z,33.86
2018-07-23T07:17:50.060Z,33.21
2018-07-23T07:20:20.632Z,35.00
2018-07-23T07:22:53.549Z,36.82
2018-07-23T07:25:25.439Z,35.11
2018-07-23T07:27:58.267Z,34.42
2018-07-23T07:30:32.651Z,35.80
2018-07-23T07:33:05.566Z,33.73
2018-07-23T07:35:35.479Z,35.12
2018-07-23T07:38:07.186Z,31.40
2018-07-23T07:40:36.920Z,32.75
2018-07-23T07:43:08.898Z,32.05
2018-07-23T07:45:42.216Z,31.79
2018-07-23T07:48:12.354Z,32.90
2018-07-23T07:50:45.348Z,33.87
2018-07-23T07:53:16.848Z,32.67
2018-07-23T07:55:48.228Z,32.05
2018-07-23T07:58:21.151Z,31.68
2018-07-23T08:00:54.020Z,31.08
2018-07-23T08:03:27.041Z,33.20
2018-07-23T08:05:58.490Z,33.23
2018-07-23T08:08:28.841Z,32.02
2018-07-23T08:11:03.170Z,30.22
2018-07-23T08:13:37.655Z,32.06
2018-07-23T08:16:12.000Z,31.05
2018-07-23T08:18:45.328Z,32.10
2018-07-23T08:21:18.421Z,33.61
2018-07-23T08:24:36.819Z,30.60
2018-07-23T08:27:09.953Z,30.51
2018-07-23T08:29:39.924Z,31.14
2018-07-23T08:32:14.495Z,30.63
2018-07-23T08:34:45.838Z,31.92
2018-07-23T08:37:19.049Z,33.17
2018-07-23T08:39:50.563Z,33.48
2018-07-23T08:42:24.412Z,33.45
2018-07-23T08:44:57.822Z,33.61
2018-07-23T08:47:27.757Z,33.53
2018-07-23T08:49:59.169Z,33.70
2018-07-23T08:52:30.601Z,33.54
2018-07-23T08:55:03.629Z,34.18
2018-07-23T08:57:34.992Z,33.30
2018-07-23T09:00:07.854Z,33.91
2018-07-23T09:02:41.214Z,32.61
2018-07-23T09:05:14.586Z,30.07
2018-07-23T09:07:47.461Z,31.20
2018-07-23T09:10:19.668Z,30.65
2018-07-23T09:12:51.130Z,30.28
2018-07-23T09:15:22.837Z,31.24
2018-07-23T09:17:55.708Z,31.48
2018-07-23T09:20:27.287Z,30.53
2018-07-23T09:22:57.196Z,32.07
2018-07-23T09:25:46.543Z,30.30
2018-07-23T09:28:20.361Z,29.67
2018-07-23T09:30:58.610Z,30.52
2018-07-23T09:33:30.145Z,32.32
2018-07-23T09:36:00.904Z,30.96
2018-07-23T09:38:34.073Z,31.38
2018-07-23T09:41:06.994Z,31.57
2018-07-23T09:43:38.392Z,31.22
2018-07-23T09:46:10.143Z,31.41
2018-07-23T09:48:41.627Z,32.27
2018-07-23T09:51:12.994Z,32.01
2018-07-23T09:53:44.427Z,31.53
2018-07-23T09:56:14.421Z,31.54
2018-07-23T09:58:45.804Z,31.11
2018-07-23T10:01:20.880Z,31.90
2018-07-23T10:03:53.969Z,31.28
2018-07-23T10:06:25.354Z,33.75
2018-07-23T10:08:56.094Z,34.73
2018-07-23T10:11:28.229Z,34.78
2018-07-23T10:13:59.651Z,32.80
2018-07-23T10:16:34.120Z,31.91
2018-07-23T10:19:07.248Z,31.64
2018-07-23T10:21:38.730Z,33.14
2018-07-23T10:24:10.286Z,32.81
2018-07-23T10:26:41.661Z,32.54
2018-07-23T10:29:11.673Z,33.63
2018-07-23T10:31:43.667Z,31.23
2018-07-23T10:34:16.309Z,31.84
2018-07-23T10:36:46.774Z,32.57
2018-07-23T10:39:16.800Z,32.15
2018-07-23T10:41:48.264Z,31.16
2018-07-23T10:44:18.670Z,32.34
2018-07-23T10:46:50.091Z,32.48
2018-07-23T10:49:22.974Z,32.11
2018-07-23T10:51:57.371Z,30.95
2018-07-23T10:54:28.230Z,31.29
2018-07-23T10:57:00.370Z,32.75
2018-07-23T10:59:32.302Z,31.52
2018-07-23T11:02:05.126Z,31.83
2018-07-23T11:04:35.134Z,32.22
2018-07-23T11:07:08.102Z,32.44
2018-07-23T11:09:39.539Z,34.89
2018-07-23T11:12:12.536Z,33.41
2018-07-23T11:14:45.477Z,35.89
2018-07-23T11:17:17.123Z,33.30
2018-07-23T11:19:49.729Z,33.85
2018-07-23T11:22:24.016Z,33.34
2018-07-23T11:24:57.393Z,34.67
2018-07-23T11:27:30.062Z,34.92
2018-07-23T11:30:02.902Z,32.84
2018-07-23T11:32:36.076Z,31.88
2018-07-23T11:35:09.091Z,32.85
2018-07-23T11:37:42.010Z,34.21
2018-07-23T11:40:13.410Z,36.47
2018-07-23T11:42:43.441Z,38.15
2018-07-23T11:45:13.519Z,36.58
2018-07-23T11:47:43.539Z,37.34
2018-07-23T11:50:16.451Z,34.44
2018-07-23T11:52:47.983Z,35.38
2018-07-23T11:55:21.788Z,34.05
2018-07-23T11:57:54.742Z,35.30
2018-07-23T12:00:27.784Z,34.38
2018-07-23T12:03:02.406Z,34.65
2018-07-23T12:05:33.319Z,34.51
2018-07-23T12:08:06.137Z,34.60
2018-07-23T12:10:36.946Z,35.26
2018-07-23T12:13:08.432Z,34.32
2018-07-23T12:15:39.859Z,34.26
2018-07-23T12:18:13.357Z,35.88
2018-07-23T12:20:44.778Z,35.41
2018-07-23T12:23:16.134Z,34.74
2018-07-23T12:25:49.149Z,35.75
2018-07-23T12:28:20.646Z,34.54
2018-07-23T12:30:53.252Z,36.07
2018-07-23T12:33:23.249Z,36.06
2018-07-23T12:35:56.173Z,34.92
2018-07-23T12:38:26.240Z,35.35
2018-07-23T12:40:58.223Z,33.59
2018-07-23T12:43:28.648Z,35.29
2018-07-23T12:46:01.525Z,35.37
2018-07-23T12:48:32.115Z,35.57
2018-07-23T12:51:04.932Z,35.70
2018-07-23T12:53:37.990Z,37.61
2018-07-23T12:56:09.677Z,39.10
2018-07-23T12:58:39.571Z,38.29
2018-07-23T13:01:12.681Z,37.00
2018-07-23T13:03:46.046Z,36.94
2018-07-23T13:06:18.299Z,35.54
2018-07-23T13:08:49.068Z,35.96
2018-07-23T13:11:22.090Z,36.56
2018-07-23T13:13:53.183Z,35.44
2018-07-23T13:16:26.119Z,36.90
2018-07-23T13:18:57.681Z,34.03
2018-07-23T13:21:29.305Z,36.77
2018-07-23T13:24:02.270Z,36.09
2018-07-23T13:26:33.649Z,37.78
2018-07-23T13:29:05.018Z,36.40
2018-07-23T13:31:38.092Z,38.84
2018-07-23T13:34:09.415Z,36.89
2018-07-23T13:36:43.997Z,38.06
2018-07-23T13:39:15.580Z,38.73
2018-07-23T13:41:45.599Z,38.20
2018-07-23T13:44:17.057Z,36.97
2018-07-23T13:46:48.609Z,38.86
2018-07-23T13:49:21.496Z,37.19
2018-07-23T13:51:53.125Z,36.34
2018-07-23T13:54:24.079Z,38.20
2018-07-23T13:56:58.306Z,39.66
2018-07-23T13:59:30.324Z,36.43
2018-07-23T14:01:59.512Z,37.37
2018-07-23T14:04:28.865Z,38.52
2018-07-23T14:07:03.324Z,36.28
2018-07-23T14:09:36.239Z,35.29
2018-07-23T14:12:07.790Z,36.69
2018-07-23T14:14:37.856Z,35.78
2018-07-23T14:17:09.245Z,37.24
2018-07-23T14:19:40.713Z,36.33
2018-07-23T14:22:13.733Z,36.92
2018-07-23T14:24:46.654Z,36.92
2018-07-23T14:27:18.231Z,34.94
2018-07-23T14:29:52.647Z,34.30
2018-07-23T14:32:28.017Z,33.60
2018-07-23T14:35:01.083Z,35.18
2018-07-23T14:37:33.293Z,34.48
2018-07-23T14:40:06.391Z,34.94
2018-07-23T14:42:37.776Z,34.80
2018-07-23T14:45:10.215Z,35.01
2018-07-23T14:47:41.753Z,36.28
2018-07-23T14:50:15.369Z,36.42
2018-07-23T14:52:47.910Z,36.04
2018-07-23T14:55:20.956Z,35.14
2018-07-23T14:57:50.970Z,36.54
2018-07-23T15:00:24.295Z,35.95
2018-07-23T15:02:56.602Z,35.79
2018-07-23T15:05:26.552Z,35.42
2018-07-23T15:07:57.943Z,34.86
2018-07-23T15:10:32.405Z,35.65
2018-07-23T15:13:05.283Z,35.10
2018-07-23T15:15:38.704Z,34.92
2018-07-23T15:18:10.745Z,35.36
2018-07-23T15:20:41.176Z,35.38
2018-07-23T15:23:14.121Z,35.94
2018-07-23T15:25:47.610Z,35.59
2018-07-23T15:28:19.264Z,34.90
2018-07-23T15:30:52.117Z,36.48
2018-07-23T15:33:25.498Z,36.71
2018-07-23T15:35:56.002Z,38.04
2018-07-23T15:38:29.028Z,38.03
2018-07-23T15:41:03.579Z,40.08
2018-07-23T15:43:37.073Z,38.19
2018-07-23T15:46:08.631Z,36.63
2018-07-23T15:55:11.445Z,36.73
2018-07-23T15:57:35.440Z,37.31
2018-07-23T16:00:07.636Z,37.22
2018-07-23T16:03:22.635Z,38.11
2018-07-23T16:05:55.518Z,39.57
2018-07-23T16:08:25.337Z,39.01
2018-07-23T16:10:58.189Z,38.14
2018-07-23T16:13:31.111Z,38.89
2018-07-23T16:16:00.234Z,38.33
2018-07-23T16:18:33.330Z,38.62
2018-07-23T16:21:02.604Z,37.76
2018-07-23T16:23:35.336Z,38.42
2018-07-23T16:26:06.273Z,39.98
2018-07-23T16:28:38.602Z,38.68
2018-07-23T16:31:10.203Z,37.32
2018-07-23T16:33:40.139Z,36.96
2018-07-23T16:36:13.071Z,37.05
2018-07-23T16:38:44.433Z,37.16
2018-07-23T16:41:15.766Z,38.76
2018-07-23T16:43:47.702Z,38.71
2018-07-23T16:46:21.122Z,37.99
2018-07-23T16:48:51.159Z,37.05
2018-07-23T16:51:21.110Z,38.15
2018-07-23T16:53:52.298Z,38.07
2018-07-23T16:56:24.393Z,38.20
2018-07-23T16:58:54.336Z,37.79
2018-07-23T17:01:25.245Z,38.56
2018-07-23T17:03:56.823Z,39.25
2018-07-23T17:06:28.677Z,40.51
2018-07-23T17:09:00.433Z,39.37
2018-07-23T17:11:34.669Z,40.19
2018-07-23T17:14:07.523Z,40.24
2018-07-23T17:16:37.539Z,40.77
2018-07-23T17:19:10.677Z,40.34
2018-07-23T17:21:41.554Z,39.79
2018-07-23T17:24:12.888Z,40.81
2018-07-23T17:26:47.427Z,39.76
2018-07-23T17:29:21.190Z,40.52
2018-07-23T17:31:52.087Z,41.38
2018-07-23T17:34:24.263Z,41.13
2018-07-23T17:36:55.646Z,42.44
2018-07-23T17:39:27.066Z,42.88
2018-07-23T17:41:56.192Z,41.37
2018-07-23T17:44:27.109Z,42.01
2018-07-23T17:46:58.854Z,41.47
2018-07-23T17:49:31.882Z,41.10
2018-07-23T17:52:03.428Z,42.39
2018-07-23T17:54:35.477Z,42.33
2018-07-23T17:57:08.877Z,42.52
2018-07-23T17:59:41.822Z,40.77
2018-07-23T18:02:14.725Z,42.31
2018-07-23T18:04:47.475Z,42.15
2018-07-23T18:07:17.323Z,42.52
2018-07-23T18:09:50.116Z,42.19
2018-07-23T18:12:22.718Z,43.13
2018-07-23T18:14:53.065Z,42.86
2018-07-23T18:17:26.137Z,43.42
2018-07-23T18:19:58.936Z,43.28
2018-07-23T18:22:30.255Z,43.56
2018-07-23T18:25:01.781Z,43.38
2018-07-23T18:27:35.616Z,44.10
2018-07-23T18:30:10.489Z,43.93
2018-07-23T18:32:41.999Z,44.00
2018-07-23T18:35:14.841Z,44.59
2018-07-23T18:37:46.773Z,45.15
2018-07-23T18:40:18.280Z,45.83
2018-07-23T18:42:48.942Z,45.38
2018-07-23T18:45:19.192Z,45.54
2018-07-23T18:47:52.075Z,46.17
2018-07-23T18:50:25.182Z,46.65
2018-07-23T18:52:57.982Z,46.65
2018-07-23T18:55:30.803Z,47.04
2018-07-23T18:58:02.778Z,46.88
2018-07-23T19:00:34.829Z,47.02
2018-07-23T19:03:05.249Z,47.35
2018-07-23T19:05:35.681Z,47.82
2018-07-23T19:08:06.407Z,47.74
2018-07-23T19:10:35.749Z,47.70
2018-07-23T19:13:08.625Z,48.17
2018-07-23T19:15:39.408Z,48.64
2018-07-23T19:18:10.927Z,48.17
2018-07-23T19:20:40.784Z,48.31
2018-07-23T19:23:15.119Z,48.17
2018-07-23T19:25:45.867Z,48.81
2018-07-23T19:28:17.431Z,48.94
2018-07-23T19:30:47.389Z,49.29
2018-07-23T19:33:19.331Z,49.70
2018-07-23T19:35:50.786Z,49.67
2018-07-23T19:38:23.731Z,49.98
2018-07-23T19:40:53.755Z,50.02
2018-07-23T19:43:25.068Z,49.98
2018-07-23T19:45:55.424Z,50.36
2018-07-23T19:48:27.638Z,50.26
2018-07-23T19:51:01.310Z,50.72
2018-07-23T19:53:34.565Z,51.00
2018-07-23T19:56:07.132Z,51.50
2018-07-23T19:58:41.449Z,52.50
2018-07-23T20:01:14.464Z,52.64
2018-07-23T20:03:44.457Z,52.71
2018-07-23T20:06:13.553Z,52.76
2018-07-23T20:08:43.753Z,53.43
2018-07-23T20:11:12.966Z,54.38
2018-07-23T20:13:45.824Z,54.97
2018-07-23T20:16:17.417Z,54.89
2018-07-23T20:18:48.873Z,55.03
2018-07-23T20:21:23.208Z,55.18
2018-07-23T20:23:56.222Z,55.45
2018-07-23T20:26:26.652Z,54.73
2018-07-23T20:29:00.856Z,55.46
2018-07-23T20:31:33.161Z,54.71
2018-07-23T20:34:04.877Z,55.40
2018-07-23T20:36:34.849Z,56.33
2018-07-23T20:39:06.422Z,55.84
2018-07-23T20:41:37.261Z,56.20
2018-07-23T20:44:10.219Z,56.31
2018-07-23T20:46:43.420Z,56.70
2018-07-23T20:49:16.796Z,57.22
2018-07-23T20:51:49.909Z,57.88
2018-07-23T20:54:21.024Z,58.12
2018-07-23T20:56:52.435Z,58.02
2018-07-23T20:59:24.945Z,58.17
2018-07-23T21:01:58.276Z,58.40
2018-07-23T21:04:31.293Z,58.86
2018-07-23T21:07:02.812Z,58.77
2018-07-23T21:09:35.968Z,59.22
2018-07-23T21:12:09.553Z,59.63
2018-07-23T21:14:40.451Z,60.20
2018-07-23T21:17:14.108Z,60.42
2018-07-23T21:19:47.118Z,60.73
2018-07-23T21:22:20.700Z,60.77
2018-07-23T21:24:52.133Z,61.80
2018-07-23T21:27:23.566Z,61.87
2018-07-23T21:29:55.547Z,62.46
2018-07-23T21:32:28.728Z,63.08
2018-07-23T21:35:00.048Z,63.27
2018-07-23T21:37:31.767Z,63.72
2018-07-23T21:40:05.107Z,64.12
2018-07-23T21:42:35.249Z,64.50
2018-07-23T21:45:05.378Z,64.47
2018-07-23T21:47:40.250Z,64.91
2018-07-23T21:50:13.191Z,65.36
2018-07-23T21:52:44.773Z,66.08
2018-07-23T21:55:16.288Z,66.28
2018-07-23T21:57:48.826Z,66.51
2018-07-23T22:00:18.848Z,66.81
2018-07-23T22:02:50.265Z,67.50
2018-07-23T22:05:23.045Z,67.47
2018-07-23T22:07:55.839Z,67.52
2018-07-23T22:10:30.176Z,67.48
2018-07-23T22:13:03.317Z,67.14
2018-07-23T22:15:33.868Z,67.50
2018-07-23T22:18:07.064Z,67.52
2018-07-23T22:20:39.362Z,67.42
2018-07-23T22:23:10.752Z,67.84
2018-07-23T22:25:42.191Z,67.91
2018-07-23T22:28:15.122Z,67.96
2018-07-23T22:30:46.334Z,68.22
2018-07-23T22:33:16.303Z,68.29
2018-07-23T22:35:50.691Z,67.81
2018-07-23T22:38:25.383Z,67.53
2018-07-23T22:40:57.570Z,67.76
2018-07-23T22:43:28.922Z,67.48
2018-07-23T22:46:00.680Z,67.44
2018-07-23T22:48:33.584Z,67.51
2018-07-23T22:51:06.727Z,67.38
2018-07-23T22:53:39.609Z,67.20
2018-07-23T22:56:11.046Z,67.18
2018-07-23T22:58:43.248Z,67.45
2018-07-23T23:01:17.117Z,67.02
2018-07-23T23:03:49.177Z,67.01
2018-07-23T23:06:19.828Z,67.12
2018-07-23T23:08:52.689Z,67.45
2018-07-23T23:11:24.153Z,67.93
2018-07-23T23:13:56.145Z,67.78
2018-07-23T23:16:26.618Z,67.73
2018-07-23T23:18:59.524Z,68.08
2018-07-23T23:21:30.964Z,68.81
2018-07-23T23:24:03.872Z,69.30
2018-07-23T23:26:35.348Z,69.08
2018-07-23T23:29:08.394Z,69.39
2018-07-23T23:31:41.304Z,69.63
2018-07-23T23:34:14.196Z,70.40
2018-07-23T23:36:47.242Z,70.37
2018-07-23T23:39:16.470Z,70.79
2018-07-23T23:41:50.835Z,70.81
2018-07-23T23:44:22.319Z,70.59
2018-07-23T23:46:55.327Z,70.52
2018-07-23T23:49:29.228Z,70.50
2018-07-23T23:52:02.684Z,70.60
2018-07-23T23:54:35.596Z,70.65
2018-07-23T23:57:08.513Z,71.25
2018-07-23T23:59:39.291Z,71.20
